sensor_id;sensor_type;location;lat;lon;timestamp;P1;durP1;ratioP1;P2;durP2;ratioP2
29026;SDS011;16120;48.608;9.092;2023-09-12T00:00:40;104.83;;;7.83;;
29026;SDS011;16120;48.608;9.092;2023-09-12T00:04:36;105.50;;;8.30;;
29026;SDS011;16120;48.608;9.092;2023-09-12T00:08:31;105.40;;;7.83;;
29026;SDS011;16120;48.608;9.092;2023-09-12T00:12:27;105.60;;;7.90;;
29026;SDS011;16120;48.608;9.092;2023-09-12T00:16:22;105.30;;;7.90;;
29026;SDS011;16120;48.608;9.092;2023-09-12T00:20:18;105.73;;;8.60;;
29026;SDS011;16120;48.608;9.092;2023-09-12T00:24:13;105.13;;;7.77;;
29026;SDS011;16120;48.608;9.092;2023-09-12T00:28:09;105.27;;;7.77;;
29026;SDS011;16120;48.608;9.092;2023-09-12T00:32:04;105.97;;;8.00;;
29026;SDS011;16120;48.608;9.092;2023-09-12T00:36:01;106.20;;;7.80;;
29026;SDS011;16120;48.608;9.092;2023-09-12T00:39:56;105.07;;;7.47;;
29026;SDS011;16120;48.608;9.092;2023-09-12T00:43:51;105.57;;;8.20;;
29026;SDS011;16120;48.608;9.092;2023-09-12T00:47:46;105.50;;;7.73;;
29026;SDS011;16120;48.608;9.092;2023-09-12T00:51:43;105.83;;;8.67;;
29026;SDS011;16120;48.608;9.092;2023-09-12T00:55:39;106.07;;;8.40;;
29026;SDS011;16120;48.608;9.092;2023-09-12T00:59:37;105.20;;;7.80;;
29026;SDS011;16120;48.608;9.092;2023-09-12T01:03:32;106.00;;;7.87;;
29026;SDS011;16120;48.608;9.092;2023-09-12T01:07:30;105.47;;;8.10;;
29026;SDS011;16120;48.608;9.092;2023-09-12T01:11:25;105.77;;;8.10;;
29026;SDS011;16120;48.608;9.092;2023-09-12T01:15:21;105.80;;;7.90;;
29026;SDS011;16120;48.608;9.092;2023-09-12T01:19:16;105.90;;;8.33;;
29026;SDS011;16120;48.608;9.092;2023-09-12T01:23:19;106.03;;;7.97;;
29026;SDS011;16120;48.608;9.092;2023-09-12T01:27:21;106.00;;;8.13;;
29026;SDS011;16120;48.608;9.092;2023-09-12T01:31:16;105.30;;;7.63;;
29026;SDS011;16120;48.608;9.092;2023-09-12T01:35:12;105.67;;;7.97;;
29026;SDS011;16120;48.608;9.092;2023-09-12T01:39:07;105.37;;;7.60;;
29026;SDS011;16120;48.608;9.092;2023-09-12T01:43:05;106.07;;;7.60;;
29026;SDS011;16120;48.608;9.092;2023-09-12T01:47:03;107.07;;;8.20;;
29026;SDS011;16120;48.608;9.092;2023-09-12T01:50:58;106.07;;;8.93;;
29026;SDS011;16120;48.608;9.092;2023-09-12T01:54:54;105.70;;;7.80;;
29026;SDS011;16120;48.608;9.092;2023-09-12T01:58:51;106.27;;;7.83;;
29026;SDS011;16120;48.608;9.092;2023-09-12T02:02:46;105.67;;;7.53;;
29026;SDS011;16120;48.608;9.092;2023-09-12T02:06:41;105.83;;;7.97;;
29026;SDS011;16120;48.608;9.092;2023-09-12T02:10:36;106.17;;;8.47;;
29026;SDS011;16120;48.608;9.092;2023-09-12T02:14:33;106.43;;;7.90;;
29026;SDS011;16120;48.608;9.092;2023-09-12T02:18:28;105.97;;;8.10;;
29026;SDS011;16120;48.608;9.092;2023-09-12T02:22:23;106.27;;;7.80;;
29026;SDS011;16120;48.608;9.092;2023-09-12T02:26:19;106.07;;;7.87;;
29026;SDS011;16120;48.608;9.092;2023-09-12T02:30:15;106.20;;;8.00;;
29026;SDS011;16120;48.608;9.092;2023-09-12T02:34:10;106.40;;;8.07;;
29026;SDS011;16120;48.608;9.092;2023-09-12T02:38:05;106.07;;;7.93;;
29026;SDS011;16120;48.608;9.092;2023-09-12T02:42:01;106.50;;;8.00;;
29026;SDS011;16120;48.608;9.092;2023-09-12T02:45:57;106.37;;;8.00;;
29026;SDS011;16120;48.608;9.092;2023-09-12T02:49:52;106.60;;;8.10;;
29026;SDS011;16120;48.608;9.092;2023-09-12T02:53:48;106.27;;;8.07;;
29026;SDS011;16120;48.608;9.092;2023-09-12T02:57:43;106.77;;;8.40;;
29026;SDS011;16120;48.608;9.092;2023-09-12T03:01:39;107.00;;;8.10;;
29026;SDS011;16120;48.608;9.092;2023-09-12T03:05:34;105.73;;;7.73;;
29026;SDS011;16120;48.608;9.092;2023-09-12T03:09:30;105.83;;;7.70;;
29026;SDS011;16120;48.608;9.092;2023-09-12T03:13:25;106.07;;;7.67;;
29026;SDS011;16120;48.608;9.092;2023-09-12T03:17:21;106.87;;;8.00;;
29026;SDS011;16120;48.608;9.092;2023-09-12T03:21:17;106.47;;;7.73;;
29026;SDS011;16120;48.608;9.092;2023-09-12T03:25:12;106.30;;;7.80;;
29026;SDS011;16120;48.608;9.092;2023-09-12T03:29:07;106.47;;;8.20;;
29026;SDS011;16120;48.608;9.092;2023-09-12T03:33:04;107.10;;;7.87;;
29026;SDS011;16120;48.608;9.092;2023-09-12T03:37:00;107.37;;;7.67;;
29026;SDS011;16120;48.608;9.092;2023-09-12T03:40:55;106.37;;;7.80;;
29026;SDS011;16120;48.608;9.092;2023-09-12T03:44:50;106.87;;;8.27;;
29026;SDS011;16120;48.608;9.092;2023-09-12T03:48:46;106.57;;;8.00;;
29026;SDS011;16120;48.608;9.092;2023-09-12T03:52:42;107.57;;;8.13;;
29026;SDS011;16120;48.608;9.092;2023-09-12T03:56:37;107.17;;;7.77;;
29026;SDS011;16120;48.608;9.092;2023-09-12T04:00:32;106.40;;;7.47;;
29026;SDS011;16120;48.608;9.092;2023-09-12T04:04:29;107.00;;;7.80;;
29026;SDS011;16120;48.608;9.092;2023-09-12T04:08:24;105.87;;;7.63;;
29026;SDS011;16120;48.608;9.092;2023-09-12T04:12:19;108.07;;;8.07;;
29026;SDS011;16120;48.608;9.092;2023-09-12T04:16:14;107.53;;;8.17;;
29026;SDS011;16120;48.608;9.092;2023-09-12T04:20:11;108.57;;;8.17;;
29026;SDS011;16120;48.608;9.092;2023-09-12T04:24:06;107.47;;;8.10;;
29026;SDS011;16120;48.608;9.092;2023-09-12T04:28:02;107.93;;;8.23;;
29026;SDS011;16120;48.608;9.092;2023-09-12T04:31:57;106.77;;;8.03;;
29026;SDS011;16120;48.608;9.092;2023-09-12T04:35:54;107.03;;;8.27;;
29026;SDS011;16120;48.608;9.092;2023-09-12T04:39:49;107.23;;;8.17;;
29026;SDS011;16120;48.608;9.092;2023-09-12T04:43:44;107.80;;;8.10;;
29026;SDS011;16120;48.608;9.092;2023-09-12T04:47:39;107.73;;;7.93;;
29026;SDS011;16120;48.608;9.092;2023-09-12T04:51:36;107.17;;;7.87;;
29026;SDS011;16120;48.608;9.092;2023-09-12T04:55:31;107.77;;;7.80;;
29026;SDS011;16120;48.608;9.092;2023-09-12T04:59:26;106.10;;;8.10;;
29026;SDS011;16120;48.608;9.092;2023-09-12T05:03:21;107.40;;;8.00;;
29026;SDS011;16120;48.608;9.092;2023-09-12T05:07:18;107.57;;;8.50;;
29026;SDS011;16120;48.608;9.092;2023-09-12T05:11:13;107.13;;;7.83;;
29026;SDS011;16120;48.608;9.092;2023-09-12T05:15:08;107.90;;;7.90;;
29026;SDS011;16120;48.608;9.092;2023-09-12T05:19:04;107.37;;;8.10;;
29026;SDS011;16120;48.608;9.092;2023-09-12T05:23:00;107.17;;;8.37;;
29026;SDS011;16120;48.608;9.092;2023-09-12T05:26:56;106.30;;;7.73;;
29026;SDS011;16120;48.608;9.092;2023-09-12T05:30:51;106.93;;;7.77;;
29026;SDS011;16120;48.608;9.092;2023-09-12T05:34:47;106.97;;;8.00;;
29026;SDS011;16120;48.608;9.092;2023-09-12T05:42:53;107.57;;;8.53;;
29026;SDS011;16120;48.608;9.092;2023-09-12T05:46:48;107.27;;;7.97;;
29026;SDS011;16120;48.608;9.092;2023-09-12T05:50:44;106.37;;;7.97;;
29026;SDS011;16120;48.608;9.092;2023-09-12T05:54:39;106.00;;;8.20;;
29026;SDS011;16120;48.608;9.092;2023-09-12T05:58:36;106.27;;;8.20;;
29026;SDS011;16120;48.608;9.092;2023-09-12T06:02:31;106.60;;;7.87;;
29026;SDS011;16120;48.608;9.092;2023-09-12T06:06:26;106.57;;;7.90;;
29026;SDS011;16120;48.608;9.092;2023-09-12T06:10:21;106.57;;;8.17;;
29026;SDS011;16120;48.608;9.092;2023-09-12T06:14:18;106.20;;;8.37;;
29026;SDS011;16120;48.608;9.092;2023-09-12T06:18:13;106.73;;;8.17;;
29026;SDS011;16120;48.608;9.092;2023-09-12T06:22:09;106.30;;;8.57;;
29026;SDS011;16120;48.608;9.092;2023-09-12T06:26:04;106.70;;;8.30;;
29026;SDS011;16120;48.608;9.092;2023-09-12T06:30:01;106.00;;;8.23;;
29026;SDS011;16120;48.608;9.092;2023-09-12T06:33:56;106.70;;;8.13;;
29026;SDS011;16120;48.608;9.092;2023-09-12T06:37:51;106.50;;;7.97;;
29026;SDS011;16120;48.608;9.092;2023-09-12T06:41:46;105.87;;;8.00;;
29026;SDS011;16120;48.608;9.092;2023-09-12T06:45:43;105.67;;;8.50;;
29026;SDS011;16120;48.608;9.092;2023-09-12T06:49:38;105.30;;;8.67;;
29026;SDS011;16120;48.608;9.092;2023-09-12T06:53:33;105.50;;;8.80;;
29026;SDS011;16120;48.608;9.092;2023-09-12T06:57:29;105.90;;;8.90;;
29026;SDS011;16120;48.608;9.092;2023-09-12T07:01:25;105.87;;;8.90;;
29026;SDS011;16120;48.608;9.092;2023-09-12T07:05:20;105.77;;;9.50;;
29026;SDS011;16120;48.608;9.092;2023-09-12T07:09:16;106.47;;;8.60;;
29026;SDS011;16120;48.608;9.092;2023-09-12T07:13:11;104.70;;;8.40;;
29026;SDS011;16120;48.608;9.092;2023-09-12T07:17:07;105.97;;;9.20;;
29026;SDS011;16120;48.608;9.092;2023-09-12T07:21:03;104.60;;;8.67;;
29026;SDS011;16120;48.608;9.092;2023-09-12T07:24:59;105.40;;;10.40;;
29026;SDS011;16120;48.608;9.092;2023-09-12T07:28:54;104.40;;;9.30;;
29026;SDS011;16120;48.608;9.092;2023-09-12T07:32:51;103.80;;;8.25;;
29026;SDS011;16120;48.608;9.092;2023-09-12T07:36:46;103.37;;;8.50;;
29026;SDS011;16120;48.608;9.092;2023-09-12T07:40:41;104.00;;;9.20;;
29026;SDS011;16120;48.608;9.092;2023-09-12T07:44:36;104.00;;;9.40;;
29026;SDS011;16120;48.608;9.092;2023-09-12T07:56:26;110.57;;;8.90;;
29026;SDS011;16120;48.608;9.092;2023-09-12T08:00:21;102.40;;;7.87;;
29026;SDS011;16120;48.608;9.092;2023-09-12T08:04:16;102.37;;;8.73;;
29026;SDS011;16120;48.608;9.092;2023-09-12T08:08:11;101.87;;;8.00;;
29026;SDS011;16120;48.608;9.092;2023-09-12T08:12:08;101.67;;;8.30;;
29026;SDS011;16120;48.608;9.092;2023-09-12T08:16:03;101.30;;;8.47;;
29026;SDS011;16120;48.608;9.092;2023-09-12T08:19:59;101.30;;;8.07;;
29026;SDS011;16120;48.608;9.092;2023-09-12T08:23:54;100.97;;;8.07;;
29026;SDS011;16120;48.608;9.092;2023-09-12T08:27:50;100.57;;;8.00;;
29026;SDS011;16120;48.608;9.092;2023-09-12T08:31:46;100.47;;;8.17;;
29026;SDS011;16120;48.608;9.092;2023-09-12T08:35:41;99.97;;;8.00;;
29026;SDS011;16120;48.608;9.092;2023-09-12T08:39:40;99.40;;;7.40;;
29026;SDS011;16120;48.608;9.092;2023-09-12T08:43:36;99.87;;;8.17;;
29026;SDS011;16120;48.608;9.092;2023-09-12T08:47:32;99.30;;;7.87;;
29026;SDS011;16120;48.608;9.092;2023-09-12T08:51:27;100.37;;;9.63;;
29026;SDS011;16120;48.608;9.092;2023-09-12T08:55:22;101.70;;;9.93;;
29026;SDS011;16120;48.608;9.092;2023-09-12T08:59:19;100.17;;;10.20;;
29026;SDS011;16120;48.608;9.092;2023-09-12T09:03:14;99.60;;;9.43;;
29026;SDS011;16120;48.608;9.092;2023-09-12T09:07:10;100.37;;;10.23;;
29026;SDS011;16120;48.608;9.092;2023-09-12T09:11:06;99.53;;;10.13;;
29026;SDS011;16120;48.608;9.092;2023-09-12T09:19:12;99.17;;;10.40;;
29026;SDS011;16120;48.608;9.092;2023-09-12T09:23:08;99.40;;;10.33;;
29026;SDS011;16120;48.608;9.092;2023-09-12T09:27:04;98.47;;;9.43;;
29026;SDS011;16120;48.608;9.092;2023-09-12T09:30:59;98.50;;;9.30;;
29026;SDS011;16120;48.608;9.092;2023-09-12T09:34:55;98.60;;;9.73;;
29026;SDS011;16120;48.608;9.092;2023-09-12T09:38:51;97.57;;;8.90;;
29026;SDS011;16120;48.608;9.092;2023-09-12T09:42:47;98.00;;;9.40;;
29026;SDS011;16120;48.608;9.092;2023-09-12T09:46:42;97.67;;;9.20;;
29026;SDS011;16120;48.608;9.092;2023-09-12T09:50:39;97.27;;;9.07;;
29026;SDS011;16120;48.608;9.092;2023-09-12T09:54:34;97.63;;;9.63;;
29026;SDS011;16120;48.608;9.092;2023-09-12T09:58:29;97.23;;;9.30;;
29026;SDS011;16120;48.608;9.092;2023-09-12T10:02:25;97.00;;;9.50;;
29026;SDS011;16120;48.608;9.092;2023-09-12T10:06:22;96.57;;;9.50;;
29026;SDS011;16120;48.608;9.092;2023-09-12T10:10:18;96.67;;;9.33;;
29026;SDS011;16120;48.608;9.092;2023-09-12T10:14:13;95.90;;;8.90;;
29026;SDS011;16120;48.608;9.092;2023-09-12T10:18:11;95.90;;;9.53;;
29026;SDS011;16120;48.608;9.092;2023-09-12T10:22:09;95.90;;;9.30;;
29026;SDS011;16120;48.608;9.092;2023-09-12T10:26:06;96.37;;;8.83;;
29026;SDS011;16120;48.608;9.092;2023-09-12T10:30:01;95.80;;;8.43;;
29026;SDS011;16120;48.608;9.092;2023-09-12T10:33:56;95.57;;;8.80;;
29026;SDS011;16120;48.608;9.092;2023-09-12T10:37:53;96.00;;;9.20;;
29026;SDS011;16120;48.608;9.092;2023-09-12T10:41:49;96.07;;;9.53;;
29026;SDS011;16120;48.608;9.092;2023-09-12T10:45:44;95.63;;;9.63;;
29026;SDS011;16120;48.608;9.092;2023-09-12T10:49:40;96.17;;;9.47;;
29026;SDS011;16120;48.608;9.092;2023-09-12T10:53:40;96.17;;;9.67;;
29026;SDS011;16120;48.608;9.092;2023-09-12T10:57:48;96.77;;;9.37;;
29026;SDS011;16120;48.608;9.092;2023-09-12T11:01:54;94.97;;;9.13;;
29026;SDS011;16120;48.608;9.092;2023-09-12T11:05:50;94.93;;;9.37;;
29026;SDS011;16120;48.608;9.092;2023-09-12T11:09:47;93.73;;;7.77;;
29026;SDS011;16120;48.608;9.092;2023-09-12T11:14:02;94.30;;;8.50;;
29026;SDS011;16120;48.608;9.092;2023-09-12T11:18:02;94.50;;;8.63;;
29026;SDS011;16120;48.608;9.092;2023-09-12T11:21:57;93.80;;;8.37;;
29026;SDS011;16120;48.608;9.092;2023-09-12T11:26:03;93.87;;;7.90;;
29026;SDS011;16120;48.608;9.092;2023-09-12T11:30:03;94.17;;;8.13;;
29026;SDS011;16120;48.608;9.092;2023-09-12T11:34:00;93.30;;;8.00;;
29026;SDS011;16120;48.608;9.092;2023-09-12T11:37:56;93.70;;;7.40;;
29026;SDS011;16120;48.608;9.092;2023-09-12T11:41:53;93.07;;;7.53;;
29026;SDS011;16120;48.608;9.092;2023-09-12T11:45:48;93.30;;;7.13;;
29026;SDS011;16120;48.608;9.092;2023-09-12T11:49:44;93.00;;;6.73;;
29026;SDS011;16120;48.608;9.092;2023-09-12T11:53:39;93.00;;;6.27;;
29026;SDS011;16120;48.608;9.092;2023-09-12T11:57:35;92.90;;;5.97;;
29026;SDS011;16120;48.608;9.092;2023-09-12T12:01:31;92.87;;;6.47;;
29026;SDS011;16120;48.608;9.092;2023-09-12T12:05:26;93.00;;;6.57;;
29026;SDS011;16120;48.608;9.092;2023-09-12T12:09:21;92.80;;;6.10;;
29026;SDS011;16120;48.608;9.092;2023-09-12T12:13:18;91.47;;;5.53;;
29026;SDS011;16120;48.608;9.092;2023-09-12T12:17:13;92.47;;;5.53;;
29026;SDS011;16120;48.608;9.092;2023-09-12T12:21:08;92.57;;;5.93;;
29026;SDS011;16120;48.608;9.092;2023-09-12T12:25:07;92.50;;;5.80;;
29026;SDS011;16120;48.608;9.092;2023-09-12T12:29:04;92.37;;;5.57;;
29026;SDS011;16120;48.608;9.092;2023-09-12T12:33:00;91.90;;;5.07;;
29026;SDS011;16120;48.608;9.092;2023-09-12T12:36:56;91.80;;;5.43;;
29026;SDS011;16120;48.608;9.092;2023-09-12T12:40:51;91.77;;;5.33;;
29026;SDS011;16120;48.608;9.092;2023-09-12T12:44:48;92.17;;;5.37;;
29026;SDS011;16120;48.608;9.092;2023-09-12T12:48:47;91.67;;;5.20;;
29026;SDS011;16120;48.608;9.092;2023-09-12T12:52:42;91.67;;;6.17;;
29026;SDS011;16120;48.608;9.092;2023-09-12T12:56:37;91.80;;;5.83;;
29026;SDS011;16120;48.608;9.092;2023-09-12T13:00:34;91.73;;;5.77;;
29026;SDS011;16120;48.608;9.092;2023-09-12T13:04:35;92.57;;;5.47;;
29026;SDS011;16120;48.608;9.092;2023-09-12T13:08:30;91.87;;;5.67;;
29026;SDS011;16120;48.608;9.092;2023-09-12T13:12:25;92.23;;;5.90;;
29026;SDS011;16120;48.608;9.092;2023-09-12T13:16:22;92.37;;;5.80;;
29026;SDS011;16120;48.608;9.092;2023-09-12T13:20:17;91.30;;;5.60;;
29026;SDS011;16120;48.608;9.092;2023-09-12T13:24:12;94.20;;;6.37;;
29026;SDS011;16120;48.608;9.092;2023-09-12T13:28:07;92.10;;;6.00;;
29026;SDS011;16120;48.608;9.092;2023-09-12T13:32:04;91.50;;;5.80;;
29026;SDS011;16120;48.608;9.092;2023-09-12T13:36:00;92.37;;;5.70;;
29026;SDS011;16120;48.608;9.092;2023-09-12T13:39:55;92.40;;;5.90;;
29026;SDS011;16120;48.608;9.092;2023-09-12T13:43:50;91.90;;;5.70;;
29026;SDS011;16120;48.608;9.092;2023-09-12T13:47:47;91.97;;;5.67;;
29026;SDS011;16120;48.608;9.092;2023-09-12T13:51:42;91.20;;;5.90;;
29026;SDS011;16120;48.608;9.092;2023-09-12T13:55:37;91.73;;;5.63;;
29026;SDS011;16120;48.608;9.092;2023-09-12T13:59:32;91.47;;;5.70;;
29026;SDS011;16120;48.608;9.092;2023-09-12T14:03:29;91.80;;;6.47;;
29026;SDS011;16120;48.608;9.092;2023-09-12T14:07:24;92.10;;;6.37;;
29026;SDS011;16120;48.608;9.092;2023-09-12T14:11:19;92.77;;;6.13;;
29026;SDS011;16120;48.608;9.092;2023-09-12T14:15:15;92.30;;;5.83;;
29026;SDS011;16120;48.608;9.092;2023-09-12T14:19:11;91.87;;;5.93;;
29026;SDS011;16120;48.608;9.092;2023-09-12T14:23:06;94.47;;;5.67;;
29026;SDS011;16120;48.608;9.092;2023-09-12T14:27:02;94.43;;;6.10;;
29026;SDS011;16120;48.608;9.092;2023-09-12T14:30:57;92.63;;;6.50;;
29026;SDS011;16120;48.608;9.092;2023-09-12T14:34:54;91.90;;;5.87;;
29026;SDS011;16120;48.608;9.092;2023-09-12T14:38:49;92.97;;;6.33;;
29026;SDS011;16120;48.608;9.092;2023-09-12T14:42:44;92.97;;;6.07;;
29026;SDS011;16120;48.608;9.092;2023-09-12T14:46:39;93.37;;;6.77;;
29026;SDS011;16120;48.608;9.092;2023-09-12T14:50:36;93.27;;;6.60;;
29026;SDS011;16120;48.608;9.092;2023-09-12T14:54:31;93.20;;;6.60;;
29026;SDS011;16120;48.608;9.092;2023-09-12T14:58:26;93.27;;;7.07;;
29026;SDS011;16120;48.608;9.092;2023-09-12T15:02:21;93.17;;;7.97;;
29026;SDS011;16120;48.608;9.092;2023-09-12T15:06:18;94.00;;;8.30;;
29026;SDS011;16120;48.608;9.092;2023-09-12T15:10:13;94.17;;;9.40;;
29026;SDS011;16120;48.608;9.092;2023-09-12T15:14:08;94.77;;;9.47;;
29026;SDS011;16120;48.608;9.092;2023-09-12T15:18:04;96.17;;;10.37;;
29026;SDS011;16120;48.608;9.092;2023-09-12T15:22:00;94.60;;;10.13;;
29026;SDS011;16120;48.608;9.092;2023-09-12T15:25:56;95.37;;;11.07;;
29026;SDS011;16120;48.608;9.092;2023-09-12T15:29:51;94.90;;;10.00;;
29026;SDS011;16120;48.608;9.092;2023-09-12T15:33:46;94.87;;;10.20;;
29026;SDS011;16120;48.608;9.092;2023-09-12T15:37:42;95.40;;;11.33;;
29026;SDS011;16120;48.608;9.092;2023-09-12T15:41:38;95.13;;;11.00;;
29026;SDS011;16120;48.608;9.092;2023-09-12T15:45:33;95.50;;;10.43;;
29026;SDS011;16120;48.608;9.092;2023-09-12T15:49:28;95.17;;;10.03;;
29026;SDS011;16120;48.608;9.092;2023-09-12T15:53:25;95.73;;;11.20;;
29026;SDS011;16120;48.608;9.092;2023-09-12T15:57:20;96.10;;;10.07;;
29026;SDS011;16120;48.608;9.092;2023-09-12T16:01:15;96.17;;;10.20;;
29026;SDS011;16120;48.608;9.092;2023-09-12T16:05:10;95.22;;;9.60;;
29026;SDS011;16120;48.608;9.092;2023-09-12T16:09:07;96.53;;;9.93;;
29026;SDS011;16120;48.608;9.092;2023-09-12T16:13:02;95.80;;;9.03;;
29026;SDS011;16120;48.608;9.092;2023-09-12T16:16:57;95.20;;;8.70;;
29026;SDS011;16120;48.608;9.092;2023-09-12T16:20:52;95.67;;;8.60;;
29026;SDS011;16120;48.608;9.092;2023-09-12T16:24:49;95.07;;;8.70;;
29026;SDS011;16120;48.608;9.092;2023-09-12T16:28:44;97.30;;;9.17;;
29026;SDS011;16120;48.608;9.092;2023-09-12T16:32:39;97.70;;;8.97;;
29026;SDS011;16120;48.608;9.092;2023-09-12T16:36:34;96.10;;;8.60;;
29026;SDS011;16120;48.608;9.092;2023-09-12T16:40:31;96.10;;;8.47;;
29026;SDS011;16120;48.608;9.092;2023-09-12T16:44:26;96.20;;;8.03;;
29026;SDS011;16120;48.608;9.092;2023-09-12T16:48:21;96.17;;;7.93;;
29026;SDS011;16120;48.608;9.092;2023-09-12T16:52:17;95.57;;;7.87;;
29026;SDS011;16120;48.608;9.092;2023-09-12T16:56:13;96.10;;;7.90;;
29026;SDS011;16120;48.608;9.092;2023-09-12T17:00:09;97.87;;;8.63;;
29026;SDS011;16120;48.608;9.092;2023-09-12T17:04:04;96.30;;;7.63;;
29026;SDS011;16120;48.608;9.092;2023-09-12T17:07:59;96.20;;;7.60;;
29026;SDS011;16120;48.608;9.092;2023-09-12T17:11:56;96.60;;;7.67;;
29026;SDS011;16120;48.608;9.092;2023-09-12T17:15:51;96.60;;;8.07;;
29026;SDS011;16120;48.608;9.092;2023-09-12T17:19:46;96.07;;;7.67;;
29026;SDS011;16120;48.608;9.092;2023-09-12T17:23:42;96.57;;;7.33;;
29026;SDS011;16120;48.608;9.092;2023-09-12T17:27:38;96.50;;;7.47;;
29026;SDS011;16120;48.608;9.092;2023-09-12T17:31:33;96.47;;;7.17;;
29026;SDS011;16120;48.608;9.092;2023-09-12T17:35:28;97.10;;;7.70;;
29026;SDS011;16120;48.608;9.092;2023-09-12T17:39:24;96.20;;;7.17;;
29026;SDS011;16120;48.608;9.092;2023-09-12T17:43:20;96.67;;;7.03;;
29026;SDS011;16120;48.608;9.092;2023-09-12T17:47:16;97.30;;;7.70;;
29026;SDS011;16120;48.608;9.092;2023-09-12T17:51:11;97.17;;;7.30;;
29026;SDS011;16120;48.608;9.092;2023-09-12T17:55:06;98.87;;;7.57;;
29026;SDS011;16120;48.608;9.092;2023-09-12T17:59:03;97.47;;;7.50;;
29026;SDS011;16120;48.608;9.092;2023-09-12T18:02:58;97.17;;;7.00;;
29026;SDS011;16120;48.608;9.092;2023-09-12T18:06:53;97.30;;;7.23;;
29026;SDS011;16120;48.608;9.092;2023-09-12T18:10:48;98.00;;;7.60;;
29026;SDS011;16120;48.608;9.092;2023-09-12T18:14:45;97.87;;;7.47;;
29026;SDS011;16120;48.608;9.092;2023-09-12T18:18:40;97.80;;;7.70;;
29026;SDS011;16120;48.608;9.092;2023-09-12T18:22:35;98.07;;;7.80;;
29026;SDS011;16120;48.608;9.092;2023-09-12T18:26:31;98.60;;;7.93;;
29026;SDS011;16120;48.608;9.092;2023-09-12T18:30:27;99.77;;;7.70;;
29026;SDS011;16120;48.608;9.092;2023-09-12T18:34:22;98.50;;;7.90;;
29026;SDS011;16120;48.608;9.092;2023-09-12T18:38:18;98.70;;;8.17;;
29026;SDS011;16120;48.608;9.092;2023-09-12T18:42:13;100.00;;;8.70;;
29026;SDS011;16120;48.608;9.092;2023-09-12T18:46:09;98.90;;;8.40;;
29026;SDS011;16120;48.608;9.092;2023-09-12T18:50:05;99.10;;;8.37;;
29026;SDS011;16120;48.608;9.092;2023-09-12T18:54:00;99.40;;;8.50;;
29026;SDS011;16120;48.608;9.092;2023-09-12T18:57:56;99.20;;;8.27;;
29026;SDS011;16120;48.608;9.092;2023-09-12T19:01:52;99.47;;;8.60;;
29026;SDS011;16120;48.608;9.092;2023-09-12T19:05:47;99.70;;;8.17;;
29026;SDS011;16120;48.608;9.092;2023-09-12T19:09:42;98.87;;;8.40;;
29026;SDS011;16120;48.608;9.092;2023-09-12T19:13:38;99.80;;;8.53;;
29026;SDS011;16120;48.608;9.092;2023-09-12T19:17:34;99.57;;;8.77;;
29026;SDS011;16120;48.608;9.092;2023-09-12T19:21:29;99.60;;;8.50;;
29026;SDS011;16120;48.608;9.092;2023-09-12T19:25:25;99.90;;;8.73;;
29026;SDS011;16120;48.608;9.092;2023-09-12T19:29:20;100.00;;;8.40;;
29026;SDS011;16120;48.608;9.092;2023-09-12T19:33:16;99.80;;;8.40;;
29026;SDS011;16120;48.608;9.092;2023-09-12T19:37:12;99.80;;;8.57;;
29026;SDS011;16120;48.608;9.092;2023-09-12T19:41:07;100.20;;;8.60;;
29026;SDS011;16120;48.608;9.092;2023-09-12T19:45:02;99.10;;;8.90;;
29026;SDS011;16120;48.608;9.092;2023-09-12T19:48:59;100.03;;;8.90;;
29026;SDS011;16120;48.608;9.092;2023-09-12T19:52:54;100.77;;;8.90;;
29026;SDS011;16120;48.608;9.092;2023-09-12T19:56:49;100.17;;;9.00;;
29026;SDS011;16120;48.608;9.092;2023-09-12T20:00:44;100.30;;;8.80;;
29026;SDS011;16120;48.608;9.092;2023-09-12T20:04:41;100.37;;;8.50;;
29026;SDS011;16120;48.608;9.092;2023-09-12T20:08:36;100.73;;;8.63;;
29026;SDS011;16120;48.608;9.092;2023-09-12T20:12:31;100.67;;;9.17;;
29026;SDS011;16120;48.608;9.092;2023-09-12T20:16:26;101.20;;;9.03;;
29026;SDS011;16120;48.608;9.092;2023-09-12T20:20:23;101.00;;;9.00;;
29026;SDS011;16120;48.608;9.092;2023-09-12T20:24:18;100.27;;;9.27;;
29026;SDS011;16120;48.608;9.092;2023-09-12T20:28:14;99.97;;;8.30;;
29026;SDS011;16120;48.608;9.092;2023-09-12T20:32:09;100.30;;;8.13;;
29026;SDS011;16120;48.608;9.092;2023-09-12T20:36:05;100.30;;;8.57;;
29026;SDS011;16120;48.608;9.092;2023-09-12T20:40:01;100.73;;;9.40;;
29026;SDS011;16120;48.608;9.092;2023-09-12T20:43:56;100.60;;;8.73;;
29026;SDS011;16120;48.608;9.092;2023-09-12T20:47:51;100.37;;;9.03;;
29026;SDS011;16120;48.608;9.092;2023-09-12T20:51:48;100.90;;;8.83;;
29026;SDS011;16120;48.608;9.092;2023-09-12T20:55:43;100.97;;;8.77;;
29026;SDS011;16120;48.608;9.092;2023-09-12T20:59:38;100.77;;;8.50;;
29026;SDS011;16120;48.608;9.092;2023-09-12T21:03:34;101.27;;;8.83;;
29026;SDS011;16120;48.608;9.092;2023-09-12T21:07:30;100.70;;;8.77;;
29026;SDS011;16120;48.608;9.092;2023-09-12T21:11:25;101.10;;;9.23;;
29026;SDS011;16120;48.608;9.092;2023-09-12T21:15:21;101.27;;;9.20;;
29026;SDS011;16120;48.608;9.092;2023-09-12T21:19:16;100.97;;;8.80;;
29026;SDS011;16120;48.608;9.092;2023-09-12T21:23:12;101.20;;;9.13;;
29026;SDS011;16120;48.608;9.092;2023-09-12T21:27:08;103.60;;;9.10;;
29026;SDS011;16120;48.608;9.092;2023-09-12T21:31:03;100.70;;;8.83;;
29026;SDS011;16120;48.608;9.092;2023-09-12T21:35:07;102.63;;;9.50;;
29026;SDS011;16120;48.608;9.092;2023-09-12T21:39:05;101.90;;;9.17;;
29026;SDS011;16120;48.608;9.092;2023-09-12T21:43:00;102.30;;;9.10;;
29026;SDS011;16120;48.608;9.092;2023-09-12T21:46:55;101.93;;;9.00;;
29026;SDS011;16120;48.608;9.092;2023-09-12T21:50:50;102.20;;;9.03;;
29026;SDS011;16120;48.608;9.092;2023-09-12T21:54:47;104.10;;;9.40;;
29026;SDS011;16120;48.608;9.092;2023-09-12T21:58:42;103.27;;;9.27;;
29026;SDS011;16120;48.608;9.092;2023-09-12T22:02:37;102.10;;;9.60;;
29026;SDS011;16120;48.608;9.092;2023-09-12T22:06:32;102.57;;;9.20;;
29026;SDS011;16120;48.608;9.092;2023-09-12T22:10:29;102.17;;;9.67;;
29026;SDS011;16120;48.608;9.092;2023-09-12T22:14:24;103.10;;;9.23;;
29026;SDS011;16120;48.608;9.092;2023-09-12T22:18:19;102.40;;;9.00;;
29026;SDS011;16120;48.608;9.092;2023-09-12T22:22:14;102.67;;;9.07;;
29026;SDS011;16120;48.608;9.092;2023-09-12T22:26:11;102.70;;;9.70;;
29026;SDS011;16120;48.608;9.092;2023-09-12T22:30:07;102.07;;;8.83;;
29026;SDS011;16120;48.608;9.092;2023-09-12T22:34:02;102.60;;;9.20;;
29026;SDS011;16120;48.608;9.092;2023-09-12T22:37:58;103.30;;;9.90;;
29026;SDS011;16120;48.608;9.092;2023-09-12T22:41:54;102.57;;;10.13;;
29026;SDS011;16120;48.608;9.092;2023-09-12T22:45:49;103.20;;;9.80;;
29026;SDS011;16120;48.608;9.092;2023-09-12T22:49:49;102.47;;;9.30;;
29026;SDS011;16120;48.608;9.092;2023-09-12T22:53:44;103.50;;;10.63;;
29026;SDS011;16120;48.608;9.092;2023-09-12T22:57:41;103.20;;;10.60;;
29026;SDS011;16120;48.608;9.092;2023-09-12T23:01:36;103.67;;;10.67;;
29026;SDS011;16120;48.608;9.092;2023-09-12T23:05:32;103.30;;;10.30;;
29026;SDS011;16120;48.608;9.092;2023-09-12T23:09:27;104.37;;;9.83;;
29026;SDS011;16120;48.608;9.092;2023-09-12T23:13:24;103.47;;;9.80;;
29026;SDS011;16120;48.608;9.092;2023-09-12T23:17:19;103.67;;;10.13;;
29026;SDS011;16120;48.608;9.092;2023-09-12T23:21:14;103.10;;;10.27;;